Time;durP1;ratioP1;P1;durP2;ratioP2;P2;SDS_P1;SDS_P2;PMS_P1;PMS_P2;Temp;Humidity;BMP_temperature;BMP_pressure;BME280_temperature;BME280_humidity;BME280_pressure;Samples;Min_cycle;Max_cycle;Signal;HPM_P1;HPM_P2
2022/10/19 00:01:15;;;;;;;5.80;4.40;;;;;;;;;;105529;1302;22485;-30
2022/10/19 00:03:51;;;;;;;5.60;3.90;;;;;;;;;;105545;1294;22493;-30
2022/10/19 00:06:27;;;;;;;5.80;3.70;;;;;;;;;;105536;1295;22493;-30
2022/10/19 00:09:01;;;;;;;5.30;4.20;;;;;;;;;;105552;1295;25354;-30
2022/10/19 00:11:36;;;;;;;5.20;3.80;;;;;;;;;;105630;1294;22467;-30
2022/10/19 00:14:10;;;;;;;5.20;3.80;;;;;;;;;;105637;1294;22521;-30
2022/10/19 00:16:46;;;;;;;6.40;4.10;;;;;;;;;;105680;1289;22514;-30
2022/10/19 00:19:21;;;;;;;5.30;3.90;;;;;;;;;;105582;1291;22468;-30
2022/10/19 00:21:53;;;;;;;5.60;3.90;;;;;;;;;;105528;1300;22466;-30
2022/10/19 00:24:25;;;;;;;5.30;4.30;;;;;;;;;;105538;1290;22522;-29
2022/10/19 00:26:57;;;;;;;5.80;4.10;;;;;;;;;;105527;1304;22525;-29
2022/10/19 00:29:29;;;;;;;5.30;3.50;;;;;;;;;;105566;1289;22611;-30
2022/10/19 00:32:01;;;;;;;5.90;4.00;;;;;;;;;;105683;1295;22640;-30
2022/10/19 00:34:33;;;;;;;5.90;4.00;;;;;;;;;;105652;1301;22556;-30
2022/10/19 00:37:05;;;;;;;5.80;3.90;;;;;;;;;;105668;1296;22709;-30
2022/10/19 00:39:37;;;;;;;5.70;3.80;;;;;;;;;;105598;1286;22508;-29
2022/10/19 00:42:13;;;;;;;5.40;3.70;;;;;;;;;;105528;1301;22465;-30
2022/10/19 00:45:14;;;;;;;4.80;3.60;;;;;;;;;;105537;1287;24129;-29
2022/10/19 00:47:47;;;;;;;5.30;3.60;;;;;;;;;;105540;1282;22468;-30
2022/10/19 00:50:18;;;;;;;;;;;;;;;;;;105601;1298;22465;-29
2022/10/19 00:52:49;;;;;;;5.10;3.60;;;;;;;;;;105661;1286;22497;-29
2022/10/19 00:55:22;;;;;;;5.40;3.80;;;;;;;;;;105669;1295;22579;-29
2022/10/19 00:57:55;;;;;;;5.70;3.70;;;;;;;;;;105672;1292;22490;-29
2022/10/19 01:00:26;;;;;;;5.60;3.90;;;;;;;;;;105520;1297;22524;-29
2022/10/19 01:02:59;;;;;;;5.30;3.50;;;;;;;;;;105527;1289;25243;-29
2022/10/19 01:05:32;;;;;;;5.70;3.80;;;;;;;;;;105498;1284;22468;-29
2022/10/19 01:08:04;;;;;;;5.80;3.50;;;;;;;;;;105535;1289;22499;-30
2022/10/19 01:10:50;;;;;;;5.50;3.60;;;;;;;;;;105592;1294;22497;-30
2022/10/19 01:13:36;;;;;;;5.30;3.50;;;;;;;;;;105688;1295;22488;-30
2022/10/19 01:16:18;;;;;;;5.50;3.50;;;;;;;;;;105665;1288;22478;-29
2022/10/19 01:18:57;;;;;;;5.30;3.50;;;;;;;;;;105652;1300;22473;-30
2022/10/19 01:21:33;;;;;;;6.10;3.60;;;;;;;;;;105497;1288;25488;-29
2022/10/19 01:24:47;;;;;;;5.30;3.50;;;;;;;;;;105529;1294;22485;-30
2022/10/19 01:27:37;;;;;;;5.10;3.60;;;;;;;;;;105510;1289;22468;-30
2022/10/19 01:30:32;;;;;;;5.20;3.80;;;;;;;;;;105486;1298;22485;-29
2022/10/19 01:33:18;;;;;;;5.00;3.70;;;;;;;;;;105656;1295;22485;-30
2022/10/19 01:36:02;;;;;;;6.10;3.80;;;;;;;;;;105660;1300;22483;-29
2022/10/19 01:38:40;;;;;;;5.30;3.80;;;;;;;;;;105686;1278;22488;-29
2022/10/19 01:41:21;;;;;;;5.50;3.50;;;;;;;;;;105493;1301;23818;-29
2022/10/19 01:44:01;;;;;;;5.40;3.60;;;;;;;;;;105496;1288;22505;-29
2022/10/19 01:46:39;;;;;;;5.60;3.90;;;;;;;;;;105505;1304;22556;-29
2022/10/19 01:49:17;;;;;;;4.60;3.30;;;;;;;;;;105497;1285;22461;-29
2022/10/19 01:51:56;;;;;;;5.10;3.50;;;;;;;;;;105591;1287;22463;-30
2022/10/19 01:54:32;;;;;;;5.30;3.90;;;;;;;;;;105675;1279;25479;-30
2022/10/19 01:57:09;;;;;;;5.80;3.60;;;;;;;;;;105681;1294;22582;-30
2022/10/19 01:59:42;;;;;;;5.50;3.60;;;;;;;;;;105679;1294;22469;-30
2022/10/19 02:02:16;;;;;;;5.40;3.40;;;;;;;;;;105493;1283;22518;-30
2022/10/19 02:04:51;;;;;;;5.30;3.40;;;;;;;;;;105520;1301;22534;-30
2022/10/19 02:07:24;;;;;;;4.60;3.40;;;;;;;;;;105530;1289;22674;-30
2022/10/19 02:10:00;;;;;;;5.70;3.40;;;;;;;;;;105532;1283;22482;-30
2022/10/19 02:12:35;;;;;;;5.90;3.60;;;;;;;;;;105624;1284;22496;-30
2022/10/19 02:15:13;;;;;;;5.50;3.60;;;;;;;;;;105662;1289;25854;-30
2022/10/19 02:17:50;;;;;;;5.10;3.50;;;;;;;;;;105627;1296;22469;-30
2022/10/19 02:20:23;;;;;;;5.80;3.80;;;;;;;;;;105693;1299;25352;-29
2022/10/19 02:22:55;;;;;;;5.40;3.70;;;;;;;;;;105454;1289;22543;-30
2022/10/19 02:25:27;;;;;;;5.40;3.60;;;;;;;;;;105527;1301;22489;-29
2022/10/19 02:28:01;;;;;;;6.00;4.00;;;;;;;;;;105517;1298;22494;-30
2022/10/19 02:30:33;;;;;;;5.10;3.90;;;;;;;;;;105523;1287;22629;-30
2022/10/19 02:33:06;;;;;;;5.60;3.90;;;;;;;;;;105607;1281;22450;-30
2022/10/19 02:35:37;;;;;;;;;;;;;;;;;;105703;1288;22451;-30
2022/10/19 02:38:11;;;;;;;5.50;3.80;;;;;;;;;;105676;1288;22481;-30
2022/10/19 02:40:51;;;;;;;6.10;4.30;;;;;;;;;;105651;1294;22505;-29
2022/10/19 02:43:27;;;;;;;5.80;3.50;;;;;;;;;;105606;1297;22476;-30
2022/10/19 02:46:06;;;;;;;5.20;3.90;;;;;;;;;;105496;1297;23026;-30
2022/10/19 02:48:40;;;;;;;5.50;3.80;;;;;;;;;;105511;1295;22936;-30
2022/10/19 02:51:31;;;;;;;5.70;3.60;;;;;;;;;;105510;1284;22534;-29
2022/10/19 02:54:04;;;;;;;5.60;3.70;;;;;;;;;;105692;1289;22484;-30
2022/10/19 02:56:39;;;;;;;6.00;4.00;;;;;;;;;;105671;1295;22483;-30
2022/10/19 02:59:11;;;;;;;4.90;3.40;;;;;;;;;;105669;1301;22465;-30
2022/10/19 03:01:48;;;;;;;6.40;4.00;;;;;;;;;;105644;1289;22533;-30
2022/10/19 03:04:22;;;;;;;6.70;3.90;;;;;;;;;;105548;1298;23877;-30
2022/10/19 03:06:53;;;;;;;6.10;3.60;;;;;;;;;;105547;1294;22553;-30
2022/10/19 03:09:25;;;;;;;6.30;3.90;;;;;;;;;;105528;1301;22554;-29
2022/10/19 03:11:58;;;;;;;4.90;3.50;;;;;;;;;;105552;1301;22481;-30
2022/10/19 03:14:32;;;;;;;5.60;3.60;;;;;;;;;;105696;1295;22564;-30
2022/10/19 03:17:04;;;;;;;6.20;3.90;;;;;;;;;;105692;1294;22486;-30
2022/10/19 03:19:37;;;;;;;5.90;3.90;;;;;;;;;;105677;1295;22478;-30
2022/10/19 03:22:09;;;;;;;5.60;3.50;;;;;;;;;;105648;1295;25363;-30
2022/10/19 03:24:41;;;;;;;5.00;3.40;;;;;;;;;;105509;1292;22488;-30
2022/10/19 03:27:13;;;;;;;4.80;3.40;;;;;;;;;;105508;1281;22488;-29
2022/10/19 03:29:45;;;;;;;5.20;3.70;;;;;;;;;;105525;1282;25931;-30
2022/10/19 03:32:17;;;;;;;5.30;4.00;;;;;;;;;;105541;1295;25369;-30
2022/10/19 03:34:49;;;;;;;5.30;3.40;;;;;;;;;;105648;1298;25358;-30
2022/10/19 03:37:21;;;;;;;6.70;3.70;;;;;;;;;;105718;1278;25822;-30
2022/10/19 03:39:53;;;;;;;5.00;3.50;;;;;;;;;;105664;1296;22825;-30
2022/10/19 03:42:25;;;;;;;6.00;3.60;;;;;;;;;;105678;1299;23849;-30
2022/10/19 03:44:58;;;;;;;6.10;3.40;;;;;;;;;;105536;1287;22467;-30
2022/10/19 03:47:32;;;;;;;5.20;3.20;;;;;;;;;;105544;1301;22458;-30
2022/10/19 03:50:05;;;;;;;5.00;3.30;;;;;;;;;;105561;1301;22466;-30
2022/10/19 03:52:38;;;;;;;5.30;3.30;;;;;;;;;;105528;1289;22498;-30
2022/10/19 03:55:12;;;;;;;5.70;3.30;;;;;;;;;;105637;1296;21781;-29
2022/10/19 03:57:45;;;;;;;4.90;3.60;;;;;;;;;;105681;1295;26586;-30
2022/10/19 04:00:21;;;;;;;5.30;3.20;;;;;;;;;;105687;1296;22478;-30
2022/10/19 04:02:53;;;;;;;5.90;3.40;;;;;;;;;;105718;1295;22464;-30
2022/10/19 04:05:25;;;;;;;5.00;3.10;;;;;;;;;;105682;1292;22471;-30
2022/10/19 04:07:57;;;;;;;4.70;3.20;;;;;;;;;;105739;1294;22928;-30
2022/10/19 04:10:30;;;;;;;5.10;3.30;;;;;;;;;;105712;1290;25034;-30
2022/10/19 04:13:01;;;;;;;;;;;;;;;;;;105752;1292;22525;-29
2022/10/19 04:15:32;;;;;;;4.80;3.30;;;;;;;;;;105500;1295;22475;-30
2022/10/19 04:18:05;;;;;;;5.50;3.40;;;;;;;;;;105539;1283;25353;-29
2022/10/19 04:20:40;;;;;;;5.30;3.40;;;;;;;;;;105563;1289;22474;-30
2022/10/19 04:23:15;;;;;;;5.10;3.30;;;;;;;;;;105535;1288;22732;-30
2022/10/19 04:25:47;;;;;;;5.30;3.40;;;;;;;;;;105704;1273;25373;-30
2022/10/19 04:28:19;;;;;;;4.90;3.00;;;;;;;;;;105720;1281;22479;-30
2022/10/19 04:30:51;;;;;;;5.00;3.30;;;;;;;;;;105711;1282;26492;-30
2022/10/19 04:33:23;;;;;;;5.20;3.30;;;;;;;;;;105733;1301;22466;-30
2022/10/19 04:36:01;;;;;;;5.50;3.40;;;;;;;;;;105533;1295;22495;-30
2022/10/19 04:38:33;;;;;;;6.00;3.70;;;;;;;;;;105529;1298;22484;-30
2022/10/19 04:41:11;;;;;;;5.60;3.50;;;;;;;;;;105538;1292;22441;-30
2022/10/19 04:43:47;;;;;;;6.00;3.40;;;;;;;;;;105561;1297;22577;-30
2022/10/19 04:46:21;;;;;;;5.00;3.30;;;;;;;;;;105628;1289;22489;-30
2022/10/19 04:48:56;;;;;;;5.40;3.20;;;;;;;;;;105506;1292;22496;-30
2022/10/19 04:51:29;;;;;;;5.40;3.00;;;;;;;;;;105530;1292;22707;-30
2022/10/19 04:54:03;;;;;;;5.90;3.40;;;;;;;;;;105508;1294;22552;-30
2022/10/19 04:56:35;;;;;;;5.50;3.30;;;;;;;;;;105843;1295;22479;-30
2022/10/19 04:59:07;;;;;;;4.70;3.20;;;;;;;;;;105771;1295;22712;-30
2022/10/19 05:01:40;;;;;;;5.70;2.90;;;;;;;;;;105727;1294;22701;-30
2022/10/19 05:04:13;;;;;;;4.90;3.00;;;;;;;;;;105752;1294;22688;-30
2022/10/19 05:06:45;;;;;;;4.90;3.00;;;;;;;;;;105525;1287;25222;-30
2022/10/19 05:09:17;;;;;;;5.20;3.10;;;;;;;;;;105508;1296;22527;-30
2022/10/19 05:11:52;;;;;;;5.10;3.10;;;;;;;;;;105558;1289;22604;-30
2022/10/19 05:14:24;;;;;;;5.50;3.10;;;;;;;;;;105530;1292;22520;-30
2022/10/19 05:16:56;;;;;;;4.90;3.00;;;;;;;;;;105693;1287;21726;-29
2022/10/19 05:19:28;;;;;;;5.80;3.10;;;;;;;;;;105726;1295;22533;-30
2022/10/19 05:22:00;;;;;;;5.40;2.90;;;;;;;;;;105644;1298;22513;-30
2022/10/19 05:24:33;;;;;;;4.60;2.90;;;;;;;;;;105713;1292;26491;-30
2022/10/19 05:27:05;;;;;;;6.50;2.80;;;;;;;;;;105497;1289;22524;-29
2022/10/19 05:29:40;;;;;;;5.10;3.00;;;;;;;;;;105527;1301;22478;-30
2022/10/19 05:32:12;;;;;;;5.50;2.90;;;;;;;;;;105563;1298;22507;-30
2022/10/19 05:34:44;;;;;;;5.00;2.90;;;;;;;;;;105550;1298;22471;-29
2022/10/19 05:37:17;;;;;;;4.40;2.70;;;;;;;;;;105674;1301;22477;-30
2022/10/19 05:39:49;;;;;;;4.50;2.70;;;;;;;;;;105740;1293;22778;-31
2022/10/19 05:42:20;;;;;;;4.20;2.60;;;;;;;;;;105708;1294;22532;-30
2022/10/19 05:44:53;;;;;;;4.80;3.10;;;;;;;;;;105739;1294;22832;-31
2022/10/19 05:47:28;;;;;;;4.90;3.00;;;;;;;;;;105520;1295;22480;-30
2022/10/19 05:49:59;;;;;;;4.90;2.90;;;;;;;;;;105501;1288;22483;-30
2022/10/19 05:52:32;;;;;;;5.20;2.90;;;;;;;;;;105485;1280;25229;-37
2022/10/19 05:55:04;;;;;;;5.80;2.80;;;;;;;;;;105512;1280;22501;-36
2022/10/19 05:57:36;;;;;;;4.80;2.70;;;;;;;;;;105714;1295;22521;-37
2022/10/19 06:00:12;;;;;;;4.90;2.70;;;;;;;;;;105693;1282;25191;-36
2022/10/19 06:02:44;;;;;;;6.00;2.60;;;;;;;;;;105562;1295;22452;-35
2022/10/19 06:05:16;;;;;;;4.50;2.40;;;;;;;;;;105560;1288;22468;-35
2022/10/19 06:07:48;;;;;;;4.90;2.40;;;;;;;;;;105504;1289;24202;-35
2022/10/19 06:10:21;;;;;;;5.00;2.60;;;;;;;;;;105495;1281;25322;-35
2022/10/19 06:12:56;;;;;;;5.10;2.60;;;;;;;;;;105495;1298;22498;-36
2022/10/19 06:15:28;;;;;;;4.20;2.40;;;;;;;;;;105498;1292;22547;-34
2022/10/19 06:17:59;;;;;;;4.40;2.30;;;;;;;;;;105597;1281;22501;-34
2022/10/19 06:20:33;;;;;;;4.60;2.80;;;;;;;;;;105698;1280;22468;-33
2022/10/19 06:23:04;;;;;;;;;;;;;;;;;;105757;1288;23873;-34
2022/10/19 06:25:37;;;;;;;4.80;2.40;;;;;;;;;;105721;1280;22483;-35
2022/10/19 06:28:10;;;;;;;4.50;2.20;;;;;;;;;;105520;1282;22465;-35
2022/10/19 06:30:43;;;;;;;4.30;2.30;;;;;;;;;;105551;1295;22670;-34
2022/10/19 06:33:15;;;;;;;5.20;2.50;;;;;;;;;;105534;1289;22467;-34
2022/10/19 06:35:47;;;;;;;4.70;2.10;;;;;;;;;;105542;1288;22496;-34
2022/10/19 06:38:21;;;;;;;4.40;2.20;;;;;;;;;;105505;1289;219250;-34
2022/10/19 06:40:55;;;;;;;5.50;2.30;;;;;;;;;;105718;1294;22507;-34
2022/10/19 06:43:28;;;;;;;4.50;2.20;;;;;;;;;;105700;1299;23914;-34
2022/10/19 06:46:00;;;;;;;4.60;2.40;;;;;;;;;;105761;1295;22486;-34
2022/10/19 06:48:33;;;;;;;5.40;2.10;;;;;;;;;;105472;1295;22508;-34
2022/10/19 06:51:07;;;;;;;4.40;2.00;;;;;;;;;;105524;1291;22511;-34
2022/10/19 06:53:41;;;;;;;4.50;2.00;;;;;;;;;;105554;1297;22514;-34
2022/10/19 06:56:14;;;;;;;4.30;2.40;;;;;;;;;;105532;1282;22451;-34
2022/10/19 06:58:46;;;;;;;4.10;2.10;;;;;;;;;;105696;1289;25464;-34
2022/10/19 07:01:21;;;;;;;4.60;2.20;;;;;;;;;;105720;1288;23403;-34
2022/10/19 07:03:55;;;;;;;4.40;2.00;;;;;;;;;;105714;1294;25536;-34
2022/10/19 07:06:28;;;;;;;4.30;2.20;;;;;;;;;;105741;1286;22480;-34
2022/10/19 07:09:01;;;;;;;4.20;2.00;;;;;;;;;;105544;1287;22479;-34
2022/10/19 07:11:33;;;;;;;5.90;2.40;;;;;;;;;;105529;1297;22561;-34
2022/10/19 07:14:06;;;;;;;4.40;2.10;;;;;;;;;;105535;1298;21714;-34
2022/10/19 07:16:38;;;;;;;4.70;2.10;;;;;;;;;;105544;1281;22491;-34
2022/10/19 07:19:12;;;;;;;4.90;2.30;;;;;;;;;;105684;1295;22560;-34
2022/10/19 07:21:44;;;;;;;4.00;2.00;;;;;;;;;;105723;1286;22514;-34
2022/10/19 07:24:17;;;;;;;3.90;2.00;;;;;;;;;;105688;1289;22517;-34
2022/10/19 07:26:49;;;;;;;4.00;2.20;;;;;;;;;;105735;1294;22501;-34
2022/10/19 07:29:21;;;;;;;4.30;2.20;;;;;;;;;;105513;1296;25210;-34
2022/10/19 07:31:55;;;;;;;;;;;;;;;;;;105539;1273;22715;-34
2022/10/19 07:34:28;;;;;;;5.90;2.20;;;;;;;;;;105549;1292;25329;-34
2022/10/19 07:37:00;;;;;;;3.90;2.00;;;;;;;;;;105547;1297;22480;-34
2022/10/19 07:39:34;;;;;;;3.50;1.70;;;;;;;;;;105637;1280;22546;-34
2022/10/19 07:42:06;;;;;;;3.70;1.80;;;;;;;;;;105699;1294;25398;-34
2022/10/19 07:44:38;;;;;;;3.70;1.80;;;;;;;;;;105725;1295;22474;-34
2022/10/19 07:47:11;;;;;;;5.30;2.50;;;;;;;;;;105692;1286;25491;-34
2022/10/19 07:49:44;;;;;;;4.60;2.20;;;;;;;;;;105547;1289;22467;-34
2022/10/19 07:52:15;;;;;;;;;;;;;;;;;;105540;1297;22463;-34
2022/10/19 07:54:48;;;;;;;3.90;2.00;;;;;;;;;;105535;1295;22478;-34
2022/10/19 07:57:21;;;;;;;;;;;;;;;;;;105578;1289;22496;-34
2022/10/19 07:59:53;;;;;;;4.80;2.40;;;;;;;;;;105677;1288;22478;-36
2022/10/19 08:02:26;;;;;;;5.00;2.70;;;;;;;;;;105712;1289;25455;-35
2022/10/19 08:04:58;;;;;;;5.00;2.60;;;;;;;;;;105748;1289;22588;-35
2022/10/19 08:07:29;;;;;;;;;;;;;;;;;;105739;1282;22480;-35
2022/10/19 08:10:02;;;;;;;4.00;1.80;;;;;;;;;;105537;1295;25391;-35
2022/10/19 08:12:37;;;;;;;4.50;2.30;;;;;;;;;;105558;1292;22691;-35
2022/10/19 08:15:14;;;;;;;4.20;2.00;;;;;;;;;;105535;1298;22468;-35
2022/10/19 08:17:46;;;;;;;4.20;2.10;;;;;;;;;;105523;1282;22497;-35
2022/10/19 08:20:18;;;;;;;4.40;2.00;;;;;;;;;;105656;1289;22600;-35
2022/10/19 08:22:50;;;;;;;5.40;2.10;;;;;;;;;;105721;1281;25249;-35
2022/10/19 08:25:23;;;;;;;3.90;1.90;;;;;;;;;;105714;1295;22452;-35
2022/10/19 08:27:55;;;;;;;4.70;2.10;;;;;;;;;;105723;1286;22474;-35
2022/10/19 08:30:27;;;;;;;4.70;2.30;;;;;;;;;;105526;1285;25377;-35
2022/10/19 08:33:00;;;;;;;3.70;2.00;;;;;;;;;;105538;1275;22508;-35
2022/10/19 08:35:33;;;;;;;5.10;2.70;;;;;;;;;;105586;1295;22513;-35
2022/10/19 08:38:03;;;;;;;;;;;;;;;;;;105533;1288;23735;-35
2022/10/19 08:40:35;;;;;;;4.70;2.10;;;;;;;;;;105651;1288;23841;-35
2022/10/19 08:43:16;;;;;;;3.40;1.60;;;;;;;;;;105719;1295;22480;-35
2022/10/19 08:45:53;;;;;;;3.80;1.90;;;;;;;;;;105697;1294;23984;-35
2022/10/19 08:48:31;;;;;;;4.50;2.00;;;;;;;;;;105687;1289;22517;-35
2022/10/19 08:51:08;;;;;;;3.70;1.80;;;;;;;;;;105540;1292;22476;-34
2022/10/19 08:53:56;;;;;;;3.90;1.70;;;;;;;;;;105525;1297;22475;-33
2022/10/19 08:56:33;;;;;;;3.80;1.80;;;;;;;;;;105525;1283;22499;-35
2022/10/19 08:59:23;;;;;;;3.70;1.80;;;;;;;;;;105524;1301;22492;-34
2022/10/19 09:01:59;;;;;;;3.70;1.70;;;;;;;;;;105751;1294;22482;-35
2022/10/19 09:04:38;;;;;;;4.00;1.70;;;;;;;;;;105720;1297;22595;-35
2022/10/19 09:07:33;;;;;;;3.80;1.80;;;;;;;;;;105728;1295;22479;-35
2022/10/19 09:10:19;;;;;;;4.50;1.90;;;;;;;;;;105675;1286;22720;-35
2022/10/19 09:12:58;;;;;;;4.40;1.90;;;;;;;;;;105518;1287;22478;-34
2022/10/19 09:15:41;;;;;;;4.10;1.90;;;;;;;;;;105535;1287;22467;-32
2022/10/19 09:18:19;;;;;;;3.80;1.90;;;;;;;;;;105538;1278;22508;-35
2022/10/19 09:20:55;;;;;;;3.90;1.60;;;;;;;;;;105582;1287;22465;-34
2022/10/19 09:23:37;;;;;;;3.40;1.70;;;;;;;;;;105728;1289;23868;-35
2022/10/19 09:26:16;;;;;;;4.80;2.00;;;;;;;;;;105676;1295;22488;-35
2022/10/19 09:28:55;;;;;;;3.70;1.60;;;;;;;;;;105725;1294;22505;-35
2022/10/19 09:31:32;;;;;;;4.60;2.00;;;;;;;;;;105588;1283;24003;-36
2022/10/19 09:34:14;;;;;;;4.00;1.90;;;;;;;;;;105536;1282;22664;-36
2022/10/19 09:36:52;;;;;;;3.60;1.70;;;;;;;;;;105542;1297;22476;-36
2022/10/19 09:39:25;;;;;;;3.60;1.70;;;;;;;;;;105544;1289;25229;-35
2022/10/19 09:42:01;;;;;;;3.30;1.40;;;;;;;;;;105629;1283;22572;-34
2022/10/19 09:44:34;;;;;;;3.30;1.40;;;;;;;;;;105710;1295;22664;-35
2022/10/19 09:47:35;;;;;;;4.70;1.80;;;;;;;;;;105739;1288;22483;-35
2022/10/19 09:50:19;;;;;;;3.40;1.60;;;;;;;;;;105694;1298;22490;-35
2022/10/19 09:52:54;;;;;;;3.80;1.70;;;;;;;;;;105661;1297;22479;-35
2022/10/19 09:55:41;;;;;;;3.40;1.60;;;;;;;;;;105341;1297;22501;-29
2022/10/19 09:58:20;;;;;;;3.60;1.60;;;;;;;;;;105287;1301;22566;-31
2022/10/19 10:00:56;;;;;;;3.70;1.40;;;;;;;;;;105248;1289;24278;-28
2022/10/19 10:03:35;;;;;;;3.40;1.30;;;;;;;;;;105463;1295;24282;-27
2022/10/19 10:06:10;;;;;;;3.20;1.40;;;;;;;;;;105467;1295;24263;-30
2022/10/19 10:08:47;;;;;;;3.70;1.60;;;;;;;;;;105442;1302;22492;-28
2022/10/19 10:11:30;;;;;;;3.40;1.50;;;;;;;;;;105392;1289;25407;-31
2022/10/19 10:14:10;;;;;;;3.40;1.50;;;;;;;;;;105239;1288;23760;-32
2022/10/19 10:16:42;;;;;;;3.30;1.40;;;;;;;;;;105276;1289;26707;-32
2022/10/19 10:19:17;;;;;;;3.20;1.40;;;;;;;;;;105239;1295;25548;-32
2022/10/19 10:21:54;;;;;;;3.70;1.40;;;;;;;;;;105283;1298;22839;-32
2022/10/19 10:24:29;;;;;;;3.60;1.40;;;;;;;;;;105433;1295;23087;-31
2022/10/19 10:27:04;;;;;;;4.50;1.60;;;;;;;;;;105405;1289;25201;-26
2022/10/19 10:29:39;;;;;;;4.80;1.50;;;;;;;;;;105415;1289;26020;-28
2022/10/19 10:32:16;;;;;;;3.20;1.30;;;;;;;;;;105355;1296;25362;-28
2022/10/19 10:34:58;;;;;;;2.80;1.30;;;;;;;;;;105464;1296;25372;-30
2022/10/19 10:37:37;;;;;;;3.20;1.20;;;;;;;;;;105531;1278;25441;-30
2022/10/19 10:40:23;;;;;;;3.20;1.10;;;;;;;;;;105537;1297;22473;-30
2022/10/19 10:43:02;;;;;;;2.70;1.20;;;;;;;;;;105588;1301;22492;-31
2022/10/19 10:45:40;;;;;;;3.00;1.10;;;;;;;;;;105706;1295;22472;-31
2022/10/19 10:48:28;;;;;;;3.30;1.30;;;;;;;;;;105706;1293;22485;-31
2022/10/19 10:51:02;;;;;;;3.60;1.30;;;;;;;;;;105703;1294;23846;-31
2022/10/19 10:53:42;;;;;;;2.30;1.00;;;;;;;;;;105523;1281;22523;-31
2022/10/19 10:56:28;;;;;;;3.10;1.20;;;;;;;;;;105530;1289;22820;-31
2022/10/19 10:59:06;;;;;;;3.70;1.30;;;;;;;;;;105548;1289;22489;-31
2022/10/19 11:01:48;;;;;;;3.00;1.10;;;;;;;;;;105541;1289;22508;-31
2022/10/19 11:04:26;;;;;;;2.80;1.10;;;;;;;;;;105694;1287;22489;-31
2022/10/19 11:07:08;;;;;;;3.30;1.20;;;;;;;;;;105716;1297;22473;-31
2022/10/19 11:09:44;;;;;;;2.70;1.10;;;;;;;;;;105704;1289;23854;-29
2022/10/19 11:12:33;;;;;;;2.50;1.20;;;;;;;;;;105670;1289;22476;-30
2022/10/19 11:15:16;;;;;;;3.60;1.00;;;;;;;;;;105476;1289;22491;-31
2022/10/19 11:17:59;;;;;;;2.60;1.00;;;;;;;;;;105532;1298;22806;-30
2022/10/19 11:20:35;;;;;;;2.90;0.90;;;;;;;;;;105516;1290;22467;-31
2022/10/19 11:23:17;;;;;;;2.30;0.90;;;;;;;;;;105523;1289;22474;-31
2022/10/19 11:26:03;;;;;;;3.10;1.00;;;;;;;;;;105477;1296;22478;-33
2022/10/19 11:28:54;;;;;;;1.90;0.80;;;;;;;;;;105461;1290;22559;-31
2022/10/19 11:31:41;;;;;;;2.50;0.90;;;;;;;;;;105457;1298;22481;-33
2022/10/19 11:34:36;;;;;;;2.00;0.90;;;;;;;;;;105429;1300;22482;-34
2022/10/19 11:37:23;;;;;;;2.80;0.80;;;;;;;;;;105454;1297;22487;-33
2022/10/19 11:40:16;;;;;;;2.70;1.00;;;;;;;;;;105509;1289;25902;-33
2022/10/19 11:43:01;;;;;;;1.60;0.80;;;;;;;;;;105463;1292;22530;-33
2022/10/19 11:45:46;;;;;;;2.10;0.80;;;;;;;;;;105436;1296;25322;-31
2022/10/19 11:48:38;;;;;;;2.20;0.90;;;;;;;;;;105486;1289;22471;-32
2022/10/19 11:51:18;;;;;;;2.50;1.10;;;;;;;;;;105455;1289;25025;-33
2022/10/19 11:54:00;;;;;;;3.00;0.70;;;;;;;;;;105447;1291;24046;-31
2022/10/19 11:56:45;;;;;;;2.50;0.90;;;;;;;;;;105481;1295;22498;-30
2022/10/19 11:59:29;;;;;;;1.90;0.70;;;;;;;;;;105451;1301;22555;-32
2022/10/19 12:02:17;;;;;;;2.50;0.80;;;;;;;;;;105483;1297;25606;-30
2022/10/19 12:04:58;;;;;;;2.00;0.80;;;;;;;;;;105447;1288;22488;-30
2022/10/19 12:08:02;;;;;;;2.30;0.70;;;;;;;;;;105492;1293;22481;-31
2022/10/19 12:10:45;;;;;;;1.60;0.70;;;;;;;;;;105469;1280;25218;-31
2022/10/19 12:13:21;;;;;;;3.40;0.60;;;;;;;;;;105466;1297;24001;-33
2022/10/19 12:15:56;;;;;;;2.70;0.70;;;;;;;;;;105373;1293;22491;-30
2022/10/19 12:18:36;;;;;;;1.50;0.70;;;;;;;;;;105566;1290;22703;-30
2022/10/19 12:21:22;;;;;;;2.10;0.80;;;;;;;;;;105517;1295;22510;-30
2022/10/19 12:23:59;;;;;;;2.60;1.10;;;;;;;;;;105528;1284;22501;-31
2022/10/19 12:26:35;;;;;;;1.50;0.60;;;;;;;;;;105815;1294;22468;-29
2022/10/19 12:29:17;;;;;;;2.30;0.70;;;;;;;;;;105727;1285;22507;-28
2022/10/19 12:31:51;;;;;;;1.60;0.60;;;;;;;;;;105690;1290;22528;-31
2022/10/19 12:34:36;;;;;;;2.20;0.60;;;;;;;;;;105677;1295;22553;-30
2022/10/19 12:37:15;;;;;;;2.10;0.70;;;;;;;;;;105532;1295;24290;-30
2022/10/19 12:39:56;;;;;;;2.30;0.70;;;;;;;;;;105529;1289;22479;-30
2022/10/19 12:42:50;;;;;;;1.90;0.70;;;;;;;;;;105488;1288;22504;-30
2022/10/19 12:45:30;;;;;;;1.50;0.60;;;;;;;;;;105488;1286;25421;-30
2022/10/19 12:48:25;;;;;;;1.40;0.60;;;;;;;;;;105713;1278;22494;-29
2022/10/19 12:51:20;;;;;;;2.00;0.50;;;;;;;;;;105694;1295;22529;-31
2022/10/19 12:53:52;;;;;;;2.10;0.80;;;;;;;;;;105695;1277;22692;-29
2022/10/19 12:56:26;;;;;;;1.90;0.70;;;;;;;;;;105718;1294;22470;-30
2022/10/19 12:59:02;;;;;;;1.60;0.50;;;;;;;;;;105692;1294;22499;-31
2022/10/19 13:01:47;;;;;;;1.60;0.60;;;;;;;;;;105532;1296;22797;-33
2022/10/19 13:04:23;;;;;;;1.00;0.40;;;;;;;;;;105554;1281;22471;-32
2022/10/19 13:07:04;;;;;;;2.40;0.70;;;;;;;;;;105684;1287;22878;-32
2022/10/19 13:09:40;;;;;;;1.30;0.50;;;;;;;;;;105796;1288;22497;-32
2022/10/19 13:12:44;;;;;;;2.50;0.70;;;;;;;;;;105798;1298;22464;-32
2022/10/19 13:15:56;;;;;;;1.90;0.70;;;;;;;;;;105792;1296;22561;-32
2022/10/19 13:19:17;;;;;;;2.30;0.70;;;;;;;;;;105521;1285;22491;-32
2022/10/19 13:22:17;;;;;;;2.00;0.80;;;;;;;;;;105534;1288;22570;-32
2022/10/19 13:25:29;;;;;;;1.70;0.60;;;;;;;;;;105506;1292;25324;-32
2022/10/19 13:28:35;;;;;;;1.90;0.60;;;;;;;;;;105731;1289;22996;-32
2022/10/19 13:31:27;;;;;;;2.20;0.50;;;;;;;;;;105776;1279;25228;-32
2022/10/19 13:34:00;;;;;;;1.80;0.60;;;;;;;;;;105785;1295;22552;-32
2022/10/19 13:36:37;;;;;;;2.00;0.60;;;;;;;;;;105718;1280;22580;-32
2022/10/19 13:39:16;;;;;;;2.00;0.60;;;;;;;;;;105705;1295;22712;-33
2022/10/19 13:42:00;;;;;;;1.50;0.60;;;;;;;;;;105719;1298;25303;-33
2022/10/19 13:44:35;;;;;;;2.20;0.70;;;;;;;;;;105703;1289;25488;-33
2022/10/19 13:47:38;;;;;;;3.20;0.70;;;;;;;;;;105733;1287;25387;-33
2022/10/19 13:50:33;;;;;;;1.80;0.70;;;;;;;;;;105783;1296;22608;-33
2022/10/19 13:53:31;;;;;;;2.30;0.80;;;;;;;;;;105830;1296;25942;-33
2022/10/19 13:56:21;;;;;;;3.10;1.00;;;;;;;;;;105780;1294;22569;-33
2022/10/19 13:59:38;;;;;;;6.20;1.90;;;;;;;;;;105686;1289;22492;-33
2022/10/19 14:02:54;;;;;;;9.80;3.00;;;;;;;;;;105525;1294;23975;-33
2022/10/19 14:05:51;;;;;;;5.00;2.10;;;;;;;;;;105502;1298;25271;-33
2022/10/19 14:08:46;;;;;;;4.50;1.30;;;;;;;;;;105373;1300;22529;-33
2022/10/19 14:11:22;;;;;;;4.10;1.50;;;;;;;;;;105714;1286;22479;-33
2022/10/19 14:14:15;;;;;;;4.90;1.70;;;;;;;;;;105699;1297;23834;-35
2022/10/19 14:16:59;;;;;;;4.70;1.50;;;;;;;;;;105707;1294;23889;-35
2022/10/19 14:19:41;;;;;;;4.90;1.70;;;;;;;;;;105523;1294;22479;-35
2022/10/19 14:22:28;;;;;;;4.90;2.00;;;;;;;;;;105544;1297;22484;-35
2022/10/19 14:25:18;;;;;;;4.40;1.40;;;;;;;;;;105569;1288;22512;-36
2022/10/19 14:27:58;;;;;;;6.60;1.80;;;;;;;;;;105529;1295;25244;-35
2022/10/19 14:30:35;;;;;;;6.50;1.60;;;;;;;;;;105723;1298;22474;-34
2022/10/19 14:33:16;;;;;;;4.70;1.80;;;;;;;;;;105697;1292;22503;-35
2022/10/19 14:35:51;;;;;;;5.00;1.50;;;;;;;;;;105692;1289;25237;-34
2022/10/19 14:38:31;;;;;;;3.80;1.40;;;;;;;;;;105508;1295;165503;-34
2022/10/19 14:41:27;;;;;;;3.90;1.40;;;;;;;;;;105541;1297;22489;-33
2022/10/19 14:44:01;;;;;;;4.30;1.50;;;;;;;;;;105500;1292;25248;-33
2022/10/19 14:46:35;;;;;;;4.60;1.60;;;;;;;;;;105542;1287;22526;-33
2022/10/19 14:49:12;;;;;;;4.80;1.40;;;;;;;;;;105572;1273;22631;-35
2022/10/19 14:51:48;;;;;;;4.30;1.30;;;;;;;;;;105781;1289;22469;-35
2022/10/19 14:54:27;;;;;;;3.40;1.30;;;;;;;;;;105678;1296;22618;-34
2022/10/19 14:57:06;;;;;;;3.80;1.10;;;;;;;;;;105682;1285;22469;-35
2022/10/19 14:59:45;;;;;;;3.50;1.10;;;;;;;;;;105547;1289;22489;-36
2022/10/19 15:02:24;;;;;;;4.80;1.20;;;;;;;;;;105551;1289;22599;-34
2022/10/19 15:04:59;;;;;;;3.70;1.00;;;;;;;;;;105541;1298;22818;-34
2022/10/19 15:07:39;;;;;;;5.00;1.30;;;;;;;;;;105568;1294;22492;-35
2022/10/19 15:10:20;;;;;;;4.30;1.30;;;;;;;;;;105621;1295;23974;-35
2022/10/19 15:13:01;;;;;;;4.80;1.50;;;;;;;;;;105696;1294;22521;-34
2022/10/19 15:15:35;;;;;;;3.90;1.20;;;;;;;;;;105766;1279;22601;-33
2022/10/19 15:18:21;;;;;;;3.60;1.30;;;;;;;;;;105680;1295;26395;-33
2022/10/19 15:21:18;;;;;;;2.50;0.80;;;;;;;;;;105534;1295;22469;-30
2022/10/19 15:23:53;;;;;;;2.60;1.00;;;;;;;;;;105562;1283;22479;-30
2022/10/19 15:26:33;;;;;;;4.30;1.00;;;;;;;;;;105551;1295;23118;-30
2022/10/19 15:29:28;;;;;;;3.00;0.90;;;;;;;;;;105496;1295;23810;-30
2022/10/19 15:32:21;;;;;;;2.30;0.90;;;;;;;;;;105666;1300;25198;-30
2022/10/19 15:34:54;;;;;;;3.30;1.00;;;;;;;;;;105720;1286;22499;-30
2022/10/19 15:37:26;;;;;;;3.20;1.30;;;;;;;;;;105742;1296;22694;-30